sensor_id;sensor_type;location;lat;lon;timestamp;P1;durP1;ratioP1;P2;durP2;ratioP2
946;SDS011;460;48.734;9.152;2023-08-24T00:00:42;8.67;;;7.90;;
946;SDS011;460;48.734;9.152;2023-08-24T00:03:08;9.13;;;8.27;;
946;SDS011;460;48.734;9.152;2023-08-24T00:05:36;10.43;;;7.53;;
946;SDS011;460;48.734;9.152;2023-08-24T00:08:03;9.17;;;8.27;;
946;SDS011;460;48.734;9.152;2023-08-24T00:10:32;11.10;;;9.03;;
946;SDS011;460;48.734;9.152;2023-08-24T00:12:59;8.43;;;7.70;;
946;SDS011;460;48.734;9.152;2023-08-24T00:15:26;7.90;;;7.20;;
946;SDS011;460;48.734;9.152;2023-08-24T00:17:53;8.20;;;7.50;;
946;SDS011;460;48.734;9.152;2023-08-24T00:20:20;8.03;;;7.17;;
946;SDS011;460;48.734;9.152;2023-08-24T00:22:48;9.50;;;8.57;;
946;SDS011;460;48.734;9.152;2023-08-24T00:25:15;9.83;;;8.93;;
946;SDS011;460;48.734;9.152;2023-08-24T00:27:44;10.00;;;9.20;;
946;SDS011;460;48.734;9.152;2023-08-24T00:30:11;10.70;;;9.67;;
946;SDS011;460;48.734;9.152;2023-08-24T00:32:38;8.83;;;8.03;;
946;SDS011;460;48.734;9.152;2023-08-24T00:35:05;8.17;;;7.47;;
946;SDS011;460;48.734;9.152;2023-08-24T00:37:35;9.07;;;8.17;;
946;SDS011;460;48.734;9.152;2023-08-24T00:40:02;8.57;;;7.77;;
946;SDS011;460;48.734;9.152;2023-08-24T00:42:36;8.63;;;7.73;;
946;SDS011;460;48.734;9.152;2023-08-24T00:45:05;7.57;;;6.70;;
946;SDS011;460;48.734;9.152;2023-08-24T00:47:32;7.47;;;6.77;;
946;SDS011;460;48.734;9.152;2023-08-24T00:50:00;8.53;;;7.73;;
946;SDS011;460;48.734;9.152;2023-08-24T00:52:28;9.33;;;8.13;;
946;SDS011;460;48.734;9.152;2023-08-24T00:54:57;7.83;;;7.13;;
946;SDS011;460;48.734;9.152;2023-08-24T00:57:25;8.97;;;7.50;;
946;SDS011;460;48.734;9.152;2023-08-24T00:59:52;9.50;;;7.53;;
946;SDS011;460;48.734;9.152;2023-08-24T01:02:20;10.63;;;8.07;;
946;SDS011;460;48.734;9.152;2023-08-24T01:04:47;7.87;;;7.17;;
946;SDS011;460;48.734;9.152;2023-08-24T01:07:14;8.80;;;7.80;;
946;SDS011;460;48.734;9.152;2023-08-24T01:09:41;9.03;;;8.10;;
946;SDS011;460;48.734;9.152;2023-08-24T01:12:10;7.70;;;6.90;;
946;SDS011;460;48.734;9.152;2023-08-24T01:14:53;8.30;;;6.77;;
946;SDS011;460;48.734;9.152;2023-08-24T01:17:28;9.10;;;7.43;;
946;SDS011;460;48.734;9.152;2023-08-24T01:19:57;10.17;;;7.80;;
946;SDS011;460;48.734;9.152;2023-08-24T01:22:32;7.60;;;6.90;;
946;SDS011;460;48.734;9.152;2023-08-24T01:25:05;8.50;;;7.70;;
946;SDS011;460;48.734;9.152;2023-08-24T01:27:36;7.90;;;7.10;;
946;SDS011;460;48.734;9.152;2023-08-24T01:30:06;6.70;;;6.20;;
946;SDS011;460;48.734;9.152;2023-08-24T01:32:35;8.70;;;7.80;;
946;SDS011;460;48.734;9.152;2023-08-24T01:35:06;9.33;;;7.43;;
946;SDS011;460;48.734;9.152;2023-08-24T01:37:35;8.20;;;7.30;;
946;SDS011;460;48.734;9.152;2023-08-24T01:40:05;7.37;;;6.70;;
946;SDS011;460;48.734;9.152;2023-08-24T01:42:42;8.90;;;8.00;;
946;SDS011;460;48.734;9.152;2023-08-24T01:45:14;8.07;;;7.27;;
946;SDS011;460;48.734;9.152;2023-08-24T01:47:45;7.67;;;6.93;;
946;SDS011;460;48.734;9.152;2023-08-24T01:50:13;8.20;;;7.43;;
946;SDS011;460;48.734;9.152;2023-08-24T01:52:40;7.60;;;6.90;;
946;SDS011;460;48.734;9.152;2023-08-24T01:55:08;7.63;;;6.93;;
946;SDS011;460;48.734;9.152;2023-08-24T01:57:35;8.87;;;8.07;;
946;SDS011;460;48.734;9.152;2023-08-24T02:00:04;9.20;;;8.03;;
946;SDS011;460;48.734;9.152;2023-08-24T02:02:34;8.17;;;7.37;;
946;SDS011;460;48.734;9.152;2023-08-24T02:05:01;8.80;;;8.00;;
946;SDS011;460;48.734;9.152;2023-08-24T02:07:28;8.17;;;7.43;;
946;SDS011;460;48.734;9.152;2023-08-24T02:09:55;7.73;;;7.00;;
946;SDS011;460;48.734;9.152;2023-08-24T02:12:22;8.13;;;7.30;;
946;SDS011;460;48.734;9.152;2023-08-24T02:14:50;10.30;;;8.70;;
946;SDS011;460;48.734;9.152;2023-08-24T02:17:18;8.17;;;7.47;;
946;SDS011;460;48.734;9.152;2023-08-24T02:19:46;8.70;;;7.90;;
946;SDS011;460;48.734;9.152;2023-08-24T02:22:14;8.53;;;7.73;;
946;SDS011;460;48.734;9.152;2023-08-24T02:24:41;9.17;;;8.27;;
946;SDS011;460;48.734;9.152;2023-08-24T02:27:10;8.73;;;7.83;;
946;SDS011;460;48.734;9.152;2023-08-24T02:29:39;8.80;;;7.97;;
946;SDS011;460;48.734;9.152;2023-08-24T02:32:07;8.17;;;7.37;;
946;SDS011;460;48.734;9.152;2023-08-24T02:34:37;7.97;;;7.17;;
946;SDS011;460;48.734;9.152;2023-08-24T02:37:05;8.80;;;7.90;;
946;SDS011;460;48.734;9.152;2023-08-24T02:39:35;8.93;;;8.13;;
946;SDS011;460;48.734;9.152;2023-08-24T02:42:03;9.03;;;8.27;;
946;SDS011;460;48.734;9.152;2023-08-24T02:44:31;8.67;;;7.87;;
946;SDS011;460;48.734;9.152;2023-08-24T02:47:00;10.13;;;8.60;;
946;SDS011;460;48.734;9.152;2023-08-24T02:49:30;10.10;;;9.20;;
946;SDS011;460;48.734;9.152;2023-08-24T02:51:58;9.27;;;8.37;;
946;SDS011;460;48.734;9.152;2023-08-24T02:54:25;8.27;;;7.47;;
946;SDS011;460;48.734;9.152;2023-08-24T02:56:53;13.03;;;9.20;;
946;SDS011;460;48.734;9.152;2023-08-24T02:59:20;9.77;;;8.80;;
946;SDS011;460;48.734;9.152;2023-08-24T03:01:46;10.87;;;9.40;;
946;SDS011;460;48.734;9.152;2023-08-24T03:04:13;9.60;;;8.70;;
946;SDS011;460;48.734;9.152;2023-08-24T03:06:40;8.90;;;7.83;;
946;SDS011;460;48.734;9.152;2023-08-24T03:09:10;10.13;;;9.13;;
946;SDS011;460;48.734;9.152;2023-08-24T03:11:37;10.90;;;9.77;;
946;SDS011;460;48.734;9.152;2023-08-24T03:14:04;9.07;;;8.27;;
946;SDS011;460;48.734;9.152;2023-08-24T03:16:31;9.50;;;8.70;;
946;SDS011;460;48.734;9.152;2023-08-24T03:18:58;9.10;;;8.37;;
946;SDS011;460;48.734;9.152;2023-08-24T03:21:24;7.57;;;6.97;;
946;SDS011;460;48.734;9.152;2023-08-24T03:23:51;8.83;;;7.93;;
946;SDS011;460;48.734;9.152;2023-08-24T03:26:20;9.50;;;8.20;;
946;SDS011;460;48.734;9.152;2023-08-24T03:28:49;10.00;;;7.70;;
946;SDS011;460;48.734;9.152;2023-08-24T03:31:16;8.40;;;7.70;;
946;SDS011;460;48.734;9.152;2023-08-24T03:33:43;8.70;;;7.60;;
946;SDS011;460;48.734;9.152;2023-08-24T03:36:10;9.23;;;8.37;;
946;SDS011;460;48.734;9.152;2023-08-24T03:38:38;8.50;;;7.70;;
946;SDS011;460;48.734;9.152;2023-08-24T03:41:04;6.83;;;6.30;;
946;SDS011;460;48.734;9.152;2023-08-24T03:43:33;8.40;;;7.40;;
946;SDS011;460;48.734;9.152;2023-08-24T03:46:02;9.47;;;8.17;;
946;SDS011;460;48.734;9.152;2023-08-24T03:48:30;9.13;;;8.23;;
946;SDS011;460;48.734;9.152;2023-08-24T03:50:57;9.40;;;8.40;;
946;SDS011;460;48.734;9.152;2023-08-24T03:53:25;8.40;;;7.60;;
946;SDS011;460;48.734;9.152;2023-08-24T03:55:52;9.83;;;8.77;;
946;SDS011;460;48.734;9.152;2023-08-24T03:58:20;7.67;;;6.90;;
946;SDS011;460;48.734;9.152;2023-08-24T04:00:48;11.13;;;6.90;;
946;SDS011;460;48.734;9.152;2023-08-24T04:03:15;8.03;;;6.87;;
946;SDS011;460;48.734;9.152;2023-08-24T04:05:42;6.90;;;6.30;;
946;SDS011;460;48.734;9.152;2023-08-24T04:08:08;9.13;;;7.43;;
946;SDS011;460;48.734;9.152;2023-08-24T04:10:35;10.17;;;8.90;;
946;SDS011;460;48.734;9.152;2023-08-24T04:13:03;9.23;;;8.33;;
946;SDS011;460;48.734;9.152;2023-08-24T04:15:30;8.40;;;7.50;;
946;SDS011;460;48.734;9.152;2023-08-24T04:17:58;7.67;;;7.00;;
946;SDS011;460;48.734;9.152;2023-08-24T04:20:25;7.57;;;6.87;;
946;SDS011;460;48.734;9.152;2023-08-24T04:22:51;6.43;;;5.87;;
946;SDS011;460;48.734;9.152;2023-08-24T04:25:18;7.20;;;6.50;;
946;SDS011;460;48.734;9.152;2023-08-24T04:27:45;8.47;;;7.67;;
946;SDS011;460;48.734;9.152;2023-08-24T04:30:12;8.10;;;7.37;;
946;SDS011;460;48.734;9.152;2023-08-24T04:32:39;7.93;;;7.33;;
946;SDS011;460;48.734;9.152;2023-08-24T04:35:08;7.97;;;7.00;;
946;SDS011;460;48.734;9.152;2023-08-24T04:37:35;7.50;;;6.90;;
946;SDS011;460;48.734;9.152;2023-08-24T04:40:03;8.53;;;7.33;;
946;SDS011;460;48.734;9.152;2023-08-24T04:42:32;7.93;;;7.13;;
946;SDS011;460;48.734;9.152;2023-08-24T04:44:59;9.43;;;7.10;;
946;SDS011;460;48.734;9.152;2023-08-24T04:47:26;7.03;;;6.43;;
946;SDS011;460;48.734;9.152;2023-08-24T04:49:53;7.93;;;7.20;;
946;SDS011;460;48.734;9.152;2023-08-24T04:52:21;10.07;;;7.70;;
946;SDS011;460;48.734;9.152;2023-08-24T04:54:47;7.20;;;6.60;;
946;SDS011;460;48.734;9.152;2023-08-24T04:57:14;9.23;;;7.63;;
946;SDS011;460;48.734;9.152;2023-08-24T04:59:41;7.60;;;6.90;;
946;SDS011;460;48.734;9.152;2023-08-24T05:02:11;10.40;;;7.37;;
946;SDS011;460;48.734;9.152;2023-08-24T05:04:38;8.47;;;7.60;;
946;SDS011;460;48.734;9.152;2023-08-24T05:07:05;8.53;;;7.67;;
946;SDS011;460;48.734;9.152;2023-08-24T05:09:33;8.77;;;7.23;;
946;SDS011;460;48.734;9.152;2023-08-24T05:11:59;8.23;;;7.43;;
946;SDS011;460;48.734;9.152;2023-08-24T05:14:26;8.40;;;7.60;;
946;SDS011;460;48.734;9.152;2023-08-24T05:16:53;9.03;;;8.20;;
946;SDS011;460;48.734;9.152;2023-08-24T05:19:20;8.50;;;7.70;;
946;SDS011;460;48.734;9.152;2023-08-24T05:21:49;11.23;;;6.60;;
946;SDS011;460;48.734;9.152;2023-08-24T05:24:16;8.40;;;7.60;;
946;SDS011;460;48.734;9.152;2023-08-24T05:26:44;7.67;;;6.97;;
946;SDS011;460;48.734;9.152;2023-08-24T05:29:11;8.17;;;7.40;;
946;SDS011;460;48.734;9.152;2023-08-24T05:31:37;7.43;;;6.73;;
946;SDS011;460;48.734;9.152;2023-08-24T05:34:04;8.63;;;7.80;;
946;SDS011;460;48.734;9.152;2023-08-24T05:36:31;7.07;;;6.23;;
946;SDS011;460;48.734;9.152;2023-08-24T05:39:01;7.70;;;7.00;;
946;SDS011;460;48.734;9.152;2023-08-24T05:41:28;7.47;;;6.70;;
946;SDS011;460;48.734;9.152;2023-08-24T05:43:56;8.20;;;7.47;;
946;SDS011;460;48.734;9.152;2023-08-24T05:46:23;10.60;;;7.40;;
946;SDS011;460;48.734;9.152;2023-08-24T05:48:51;7.23;;;6.63;;
946;SDS011;460;48.734;9.152;2023-08-24T05:51:18;8.30;;;7.60;;
946;SDS011;460;48.734;9.152;2023-08-24T05:53:51;8.43;;;7.03;;
946;SDS011;460;48.734;9.152;2023-08-24T05:56:20;9.80;;;7.20;;
946;SDS011;460;48.734;9.152;2023-08-24T05:58:47;7.07;;;6.23;;
946;SDS011;460;48.734;9.152;2023-08-24T06:01:15;8.00;;;7.10;;
946;SDS011;460;48.734;9.152;2023-08-24T06:03:42;6.30;;;5.90;;
946;SDS011;460;48.734;9.152;2023-08-24T06:06:09;7.17;;;6.33;;
946;SDS011;460;48.734;9.152;2023-08-24T06:08:36;7.90;;;7.20;;
946;SDS011;460;48.734;9.152;2023-08-24T06:11:03;7.13;;;6.43;;
946;SDS011;460;48.734;9.152;2023-08-24T06:13:30;8.90;;;7.20;;
946;SDS011;460;48.734;9.152;2023-08-24T06:16:01;8.57;;;6.57;;
946;SDS011;460;48.734;9.152;2023-08-24T06:18:29;7.50;;;6.40;;
946;SDS011;460;48.734;9.152;2023-08-24T06:20:56;7.43;;;6.73;;
946;SDS011;460;48.734;9.152;2023-08-24T06:23:22;7.47;;;6.43;;
946;SDS011;460;48.734;9.152;2023-08-24T06:25:49;9.03;;;6.47;;
946;SDS011;460;48.734;9.152;2023-08-24T06:28:16;7.27;;;6.67;;
946;SDS011;460;48.734;9.152;2023-08-24T06:30:43;9.47;;;5.93;;
946;SDS011;460;48.734;9.152;2023-08-24T06:33:10;8.20;;;6.37;;
946;SDS011;460;48.734;9.152;2023-08-24T06:35:39;6.33;;;5.83;;
946;SDS011;460;48.734;9.152;2023-08-24T06:38:07;7.80;;;6.70;;
946;SDS011;460;48.734;9.152;2023-08-24T06:40:33;7.67;;;6.97;;
946;SDS011;460;48.734;9.152;2023-08-24T06:43:03;8.07;;;7.37;;
946;SDS011;460;48.734;9.152;2023-08-24T06:45:39;7.67;;;6.20;;
946;SDS011;460;48.734;9.152;2023-08-24T06:48:06;6.33;;;5.80;;
946;SDS011;460;48.734;9.152;2023-08-24T06:50:33;7.77;;;6.97;;
946;SDS011;460;48.734;9.152;2023-08-24T06:53:03;7.53;;;6.50;;
946;SDS011;460;48.734;9.152;2023-08-24T06:55:30;6.90;;;6.30;;
946;SDS011;460;48.734;9.152;2023-08-24T06:57:57;8.10;;;5.83;;
946;SDS011;460;48.734;9.152;2023-08-24T07:00:23;7.60;;;6.93;;
946;SDS011;460;48.734;9.152;2023-08-24T07:02:50;6.60;;;6.03;;
946;SDS011;460;48.734;9.152;2023-08-24T07:05:18;10.40;;;5.90;;
946;SDS011;460;48.734;9.152;2023-08-24T07:07:45;7.17;;;6.57;;
946;SDS011;460;48.734;9.152;2023-08-24T07:10:15;6.03;;;5.53;;
946;SDS011;460;48.734;9.152;2023-08-24T07:12:42;7.00;;;5.93;;
946;SDS011;460;48.734;9.152;2023-08-24T07:15:10;6.83;;;6.23;;
946;SDS011;460;48.734;9.152;2023-08-24T07:17:39;7.00;;;6.40;;
946;SDS011;460;48.734;9.152;2023-08-24T07:20:06;6.63;;;6.07;;
946;SDS011;460;48.734;9.152;2023-08-24T07:22:34;7.80;;;6.30;;
946;SDS011;460;48.734;9.152;2023-08-24T07:25:01;7.63;;;6.70;;
946;SDS011;460;48.734;9.152;2023-08-24T07:27:31;7.03;;;6.00;;
946;SDS011;460;48.734;9.152;2023-08-24T07:29:58;7.27;;;6.67;;
946;SDS011;460;48.734;9.152;2023-08-24T07:32:25;7.60;;;6.70;;
946;SDS011;460;48.734;9.152;2023-08-24T07:34:52;6.47;;;5.97;;
946;SDS011;460;48.734;9.152;2023-08-24T07:37:19;6.80;;;6.20;;
946;SDS011;460;48.734;9.152;2023-08-24T07:39:46;6.03;;;5.43;;
946;SDS011;460;48.734;9.152;2023-08-24T07:42:14;6.40;;;5.80;;
946;SDS011;460;48.734;9.152;2023-08-24T07:44:42;7.80;;;7.10;;
946;SDS011;460;48.734;9.152;2023-08-24T07:47:09;6.13;;;5.63;;
946;SDS011;460;48.734;9.152;2023-08-24T07:49:35;6.40;;;5.77;;
946;SDS011;460;48.734;9.152;2023-08-24T07:52:08;7.30;;;5.77;;
946;SDS011;460;48.734;9.152;2023-08-24T07:54:36;8.33;;;6.97;;
946;SDS011;460;48.734;9.152;2023-08-24T07:57:02;7.40;;;6.47;;
946;SDS011;460;48.734;9.152;2023-08-24T07:59:30;6.87;;;6.27;;
946;SDS011;460;48.734;9.152;2023-08-24T08:01:58;9.30;;;6.70;;
946;SDS011;460;48.734;9.152;2023-08-24T08:04:25;8.73;;;7.40;;
946;SDS011;460;48.734;9.152;2023-08-24T08:06:52;6.77;;;6.27;;
946;SDS011;460;48.734;9.152;2023-08-24T08:09:20;7.07;;;6.43;;
946;SDS011;460;48.734;9.152;2023-08-24T08:11:47;8.33;;;6.63;;
946;SDS011;460;48.734;9.152;2023-08-24T08:14:14;7.03;;;6.43;;
946;SDS011;460;48.734;9.152;2023-08-24T08:16:41;8.07;;;7.27;;
946;SDS011;460;48.734;9.152;2023-08-24T08:19:09;8.50;;;7.67;;
946;SDS011;460;48.734;9.152;2023-08-24T08:21:42;10.03;;;6.33;;
946;SDS011;460;48.734;9.152;2023-08-24T08:24:11;7.03;;;5.77;;
946;SDS011;460;48.734;9.152;2023-08-24T08:26:38;6.37;;;5.77;;
946;SDS011;460;48.734;9.152;2023-08-24T08:29:05;7.83;;;7.03;;
946;SDS011;460;48.734;9.152;2023-08-24T08:31:31;8.03;;;7.30;;
946;SDS011;460;48.734;9.152;2023-08-24T08:33:58;7.57;;;6.97;;
946;SDS011;460;48.734;9.152;2023-08-24T08:36:26;8.13;;;7.43;;
946;SDS011;460;48.734;9.152;2023-08-24T08:38:53;7.97;;;7.17;;
946;SDS011;460;48.734;9.152;2023-08-24T08:41:21;7.73;;;6.90;;
946;SDS011;460;48.734;9.152;2023-08-24T08:43:54;7.77;;;7.07;;
946;SDS011;460;48.734;9.152;2023-08-24T08:46:28;6.70;;;6.20;;
946;SDS011;460;48.734;9.152;2023-08-24T08:48:55;7.33;;;6.70;;
946;SDS011;460;48.734;9.152;2023-08-24T08:51:22;6.30;;;5.70;;
946;SDS011;460;48.734;9.152;2023-08-24T08:53:53;6.90;;;6.00;;
946;SDS011;460;48.734;9.152;2023-08-24T08:56:20;9.37;;;6.40;;
946;SDS011;460;48.734;9.152;2023-08-24T08:58:48;8.63;;;5.93;;
946;SDS011;460;48.734;9.152;2023-08-24T09:01:16;6.70;;;6.10;;
946;SDS011;460;48.734;9.152;2023-08-24T09:03:44;7.20;;;6.60;;
946;SDS011;460;48.734;9.152;2023-08-24T09:06:12;6.37;;;5.87;;
946;SDS011;460;48.734;9.152;2023-08-24T09:08:39;8.97;;;7.87;;
946;SDS011;460;48.734;9.152;2023-08-24T09:11:07;7.30;;;6.70;;
946;SDS011;460;48.734;9.152;2023-08-24T09:13:35;7.40;;;6.70;;
946;SDS011;460;48.734;9.152;2023-08-24T09:16:05;6.50;;;6.00;;
946;SDS011;460;48.734;9.152;2023-08-24T09:18:34;7.60;;;6.90;;
946;SDS011;460;48.734;9.152;2023-08-24T09:21:07;6.50;;;6.00;;
946;SDS011;460;48.734;9.152;2023-08-24T09:23:35;6.23;;;5.63;;
946;SDS011;460;48.734;9.152;2023-08-24T09:26:02;7.40;;;6.70;;
946;SDS011;460;48.734;9.152;2023-08-24T09:28:31;7.03;;;6.43;;
946;SDS011;460;48.734;9.152;2023-08-24T09:30:59;6.73;;;6.13;;
946;SDS011;460;48.734;9.152;2023-08-24T09:33:27;7.70;;;7.00;;
946;SDS011;460;48.734;9.152;2023-08-24T09:35:55;15.53;;;6.17;;
946;SDS011;460;48.734;9.152;2023-08-24T09:38:26;6.83;;;6.13;;
946;SDS011;460;48.734;9.152;2023-08-24T09:40:53;11.43;;;6.00;;
946;SDS011;460;48.734;9.152;2023-08-24T09:43:21;7.27;;;6.63;;
946;SDS011;460;48.734;9.152;2023-08-24T09:45:51;7.10;;;5.83;;
946;SDS011;460;48.734;9.152;2023-08-24T09:48:18;6.63;;;6.13;;
946;SDS011;460;48.734;9.152;2023-08-24T09:50:46;6.20;;;5.47;;
946;SDS011;460;48.734;9.152;2023-08-24T09:53:15;6.90;;;6.30;;
946;SDS011;460;48.734;9.152;2023-08-24T09:55:48;6.23;;;5.77;;
946;SDS011;460;48.734;9.152;2023-08-24T09:58:19;7.40;;;6.20;;
946;SDS011;460;48.734;9.152;2023-08-24T10:00:46;6.37;;;5.43;;
946;SDS011;460;48.734;9.152;2023-08-24T10:03:15;6.00;;;5.27;;
946;SDS011;460;48.734;9.152;2023-08-24T10:05:45;8.90;;;5.83;;
946;SDS011;460;48.734;9.152;2023-08-24T10:08:17;18.10;;;8.67;;
946;SDS011;460;48.734;9.152;2023-08-24T10:10:47;6.60;;;6.00;;
946;SDS011;460;48.734;9.152;2023-08-24T10:13:20;8.90;;;6.77;;
946;SDS011;460;48.734;9.152;2023-08-24T10:15:55;6.10;;;5.60;;
946;SDS011;460;48.734;9.152;2023-08-24T10:18:23;7.33;;;6.63;;
946;SDS011;460;48.734;9.152;2023-08-24T10:20:52;10.30;;;6.33;;
946;SDS011;460;48.734;9.152;2023-08-24T10:23:21;6.47;;;5.53;;
946;SDS011;460;48.734;9.152;2023-08-24T10:25:49;6.87;;;6.17;;
946;SDS011;460;48.734;9.152;2023-08-24T10:28:18;6.60;;;5.80;;
946;SDS011;460;48.734;9.152;2023-08-24T10:30:46;7.40;;;6.70;;
946;SDS011;460;48.734;9.152;2023-08-24T10:33:14;6.73;;;6.03;;
946;SDS011;460;48.734;9.152;2023-08-24T10:35:43;7.20;;;6.40;;
946;SDS011;460;48.734;9.152;2023-08-24T10:38:23;6.77;;;6.23;;
946;SDS011;460;48.734;9.152;2023-08-24T10:40:51;6.70;;;5.60;;
946;SDS011;460;48.734;9.152;2023-08-24T10:43:19;8.40;;;6.50;;
946;SDS011;460;48.734;9.152;2023-08-24T10:45:56;7.43;;;6.73;;
946;SDS011;460;48.734;9.152;2023-08-24T10:48:24;6.87;;;6.27;;
946;SDS011;460;48.734;9.152;2023-08-24T10:53:45;6.67;;;6.17;;
946;SDS011;460;48.734;9.152;2023-08-24T10:56:18;6.90;;;6.40;;
946;SDS011;460;48.734;9.152;2023-08-24T10:58:45;6.70;;;6.20;;
946;SDS011;460;48.734;9.152;2023-08-24T11:01:16;6.13;;;5.73;;
946;SDS011;460;48.734;9.152;2023-08-24T11:03:48;9.97;;;6.00;;
946;SDS011;460;48.734;9.152;2023-08-24T11:06:21;7.20;;;6.50;;
946;SDS011;460;48.734;9.152;2023-08-24T11:08:57;8.20;;;7.50;;
946;SDS011;460;48.734;9.152;2023-08-24T11:11:34;6.27;;;5.70;;
946;SDS011;460;48.734;9.152;2023-08-24T11:14:14;7.80;;;7.10;;
946;SDS011;460;48.734;9.152;2023-08-24T11:16:41;6.50;;;5.90;;
946;SDS011;460;48.734;9.152;2023-08-24T11:19:10;7.60;;;6.93;;
946;SDS011;460;48.734;9.152;2023-08-24T11:21:39;7.50;;;6.90;;
946;SDS011;460;48.734;9.152;2023-08-24T11:24:07;6.87;;;6.20;;
946;SDS011;460;48.734;9.152;2023-08-24T11:26:41;7.30;;;6.70;;
946;SDS011;460;48.734;9.152;2023-08-24T11:29:09;7.87;;;6.33;;
946;SDS011;460;48.734;9.152;2023-08-24T11:31:36;7.50;;;6.90;;
946;SDS011;460;48.734;9.152;2023-08-24T11:34:04;7.43;;;6.83;;
946;SDS011;460;48.734;9.152;2023-08-24T11:36:39;7.00;;;6.47;;
946;SDS011;460;48.734;9.152;2023-08-24T11:39:13;10.10;;;7.27;;
946;SDS011;460;48.734;9.152;2023-08-24T11:41:41;9.43;;;8.57;;
946;SDS011;460;48.734;9.152;2023-08-24T11:44:08;8.33;;;7.50;;
946;SDS011;460;48.734;9.152;2023-08-24T11:46:36;7.80;;;7.20;;
946;SDS011;460;48.734;9.152;2023-08-24T11:49:04;6.90;;;6.40;;
946;SDS011;460;48.734;9.152;2023-08-24T11:51:31;6.93;;;6.33;;
946;SDS011;460;48.734;9.152;2023-08-24T11:54:03;6.70;;;6.10;;
946;SDS011;460;48.734;9.152;2023-08-24T11:56:34;7.00;;;6.33;;
946;SDS011;460;48.734;9.152;2023-08-24T11:59:10;7.10;;;5.93;;
946;SDS011;460;48.734;9.152;2023-08-24T12:01:38;6.53;;;5.93;;
946;SDS011;460;48.734;9.152;2023-08-24T12:04:07;6.23;;;5.83;;
946;SDS011;460;48.734;9.152;2023-08-24T12:06:39;7.30;;;6.70;;
946;SDS011;460;48.734;9.152;2023-08-24T12:09:07;6.43;;;5.93;;
946;SDS011;460;48.734;9.152;2023-08-24T12:11:35;6.77;;;6.17;;
946;SDS011;460;48.734;9.152;2023-08-24T12:14:02;7.80;;;6.63;;
946;SDS011;460;48.734;9.152;2023-08-24T12:16:31;6.60;;;6.10;;
946;SDS011;460;48.734;9.152;2023-08-24T12:18:59;6.63;;;6.03;;
946;SDS011;460;48.734;9.152;2023-08-24T12:21:28;7.07;;;6.47;;
946;SDS011;460;48.734;9.152;2023-08-24T12:23:56;6.30;;;5.70;;
946;SDS011;460;48.734;9.152;2023-08-24T12:26:24;6.60;;;6.10;;
946;SDS011;460;48.734;9.152;2023-08-24T12:28:52;6.60;;;6.10;;
946;SDS011;460;48.734;9.152;2023-08-24T12:31:19;8.43;;;6.30;;
946;SDS011;460;48.734;9.152;2023-08-24T12:33:56;6.33;;;5.63;;
946;SDS011;460;48.734;9.152;2023-08-24T12:36:28;6.10;;;5.60;;
946;SDS011;460;48.734;9.152;2023-08-24T12:38:55;6.00;;;5.60;;
946;SDS011;460;48.734;9.152;2023-08-24T12:41:22;6.32;;;5.82;;
946;SDS011;460;48.734;9.152;2023-08-24T12:43:51;6.88;;;6.38;;
946;SDS011;460;48.734;9.152;2023-08-24T12:46:18;6.63;;;6.13;;
946;SDS011;460;48.734;9.152;2023-08-24T12:48:44;11.75;;;6.00;;
946;SDS011;460;48.734;9.152;2023-08-24T12:51:11;6.55;;;5.95;;
946;SDS011;460;48.734;9.152;2023-08-24T12:53:38;6.45;;;5.95;;
946;SDS011;460;48.734;9.152;2023-08-24T12:56:05;6.30;;;5.68;;
946;SDS011;460;48.734;9.152;2023-08-24T12:58:32;6.38;;;5.70;;
946;SDS011;460;48.734;9.152;2023-08-24T13:01:00;6.40;;;5.55;;
946;SDS011;460;48.734;9.152;2023-08-24T13:03:27;5.65;;;5.28;;
946;SDS011;460;48.734;9.152;2023-08-24T13:05:54;7.88;;;6.35;;
946;SDS011;460;48.734;9.152;2023-08-24T13:08:21;6.78;;;6.05;;
946;SDS011;460;48.734;9.152;2023-08-24T13:10:48;7.25;;;6.18;;
946;SDS011;460;48.734;9.152;2023-08-24T13:13:15;10.27;;;5.68;;
946;SDS011;460;48.734;9.152;2023-08-24T13:15:42;6.93;;;6.25;;
946;SDS011;460;48.734;9.152;2023-08-24T13:18:10;5.85;;;5.35;;
946;SDS011;460;48.734;9.152;2023-08-24T13:20:37;5.95;;;5.50;;
946;SDS011;460;48.734;9.152;2023-08-24T13:23:04;5.97;;;5.47;;
946;SDS011;460;48.734;9.152;2023-08-24T13:25:31;6.43;;;5.85;;
946;SDS011;460;48.734;9.152;2023-08-24T13:27:58;5.32;;;4.93;;
946;SDS011;460;48.734;9.152;2023-08-24T13:30:24;5.75;;;5.35;;
946;SDS011;460;48.734;9.152;2023-08-24T13:32:52;6.10;;;5.60;;
946;SDS011;460;48.734;9.152;2023-08-24T13:35:20;5.40;;;5.00;;
946;SDS011;460;48.734;9.152;2023-08-24T13:37:47;5.32;;;4.88;;
946;SDS011;460;48.734;9.152;2023-08-24T13:40:16;6.22;;;4.95;;
946;SDS011;460;48.734;9.152;2023-08-24T13:42:43;8.68;;;5.28;;
946;SDS011;460;48.734;9.152;2023-08-24T13:45:10;8.75;;;5.13;;
946;SDS011;460;48.734;9.152;2023-08-24T13:47:37;5.27;;;4.83;;
946;SDS011;460;48.734;9.152;2023-08-24T13:50:04;8.80;;;5.03;;
946;SDS011;460;48.734;9.152;2023-08-24T13:52:33;6.03;;;5.17;;
946;SDS011;460;48.734;9.152;2023-08-24T13:54:59;9.30;;;5.70;;
946;SDS011;460;48.734;9.152;2023-08-24T13:57:28;6.13;;;5.00;;
946;SDS011;460;48.734;9.152;2023-08-24T13:59:55;5.57;;;5.13;;
946;SDS011;460;48.734;9.152;2023-08-24T14:02:22;5.37;;;4.87;;
946;SDS011;460;48.734;9.152;2023-08-24T14:04:49;4.90;;;4.53;;
946;SDS011;460;48.734;9.152;2023-08-24T14:07:16;4.90;;;4.50;;
946;SDS011;460;48.734;9.152;2023-08-24T14:09:44;6.97;;;4.50;;
946;SDS011;460;48.734;9.152;2023-08-24T14:12:11;4.43;;;4.10;;
946;SDS011;460;48.734;9.152;2023-08-24T14:14:37;5.07;;;4.67;;
946;SDS011;460;48.734;9.152;2023-08-24T14:17:04;5.90;;;4.27;;
946;SDS011;460;48.734;9.152;2023-08-24T14:19:31;6.00;;;3.90;;
946;SDS011;460;48.734;9.152;2023-08-24T14:21:58;3.97;;;3.67;;
946;SDS011;460;48.734;9.152;2023-08-24T14:24:25;5.00;;;4.50;;
946;SDS011;460;48.734;9.152;2023-08-24T14:26:53;4.53;;;4.13;;
946;SDS011;460;48.734;9.152;2023-08-24T14:29:20;7.00;;;4.70;;
946;SDS011;460;48.734;9.152;2023-08-24T14:31:47;5.20;;;4.70;;
946;SDS011;460;48.734;9.152;2023-08-24T14:34:13;7.77;;;5.23;;
946;SDS011;460;48.734;9.152;2023-08-24T14:36:40;5.20;;;4.80;;
946;SDS011;460;48.734;9.152;2023-08-24T14:39:07;5.00;;;4.40;;
946;SDS011;460;48.734;9.152;2023-08-24T14:41:34;4.93;;;4.40;;
946;SDS011;460;48.734;9.152;2023-08-24T14:44:02;6.43;;;5.67;;
946;SDS011;460;48.734;9.152;2023-08-24T14:46:29;7.07;;;5.00;;
946;SDS011;460;48.734;9.152;2023-08-24T14:48:55;5.63;;;5.10;;
946;SDS011;460;48.734;9.152;2023-08-24T14:51:22;5.57;;;5.13;;
946;SDS011;460;48.734;9.152;2023-08-24T14:53:49;4.93;;;4.20;;
946;SDS011;460;48.734;9.152;2023-08-24T14:56:16;5.93;;;5.30;;
946;SDS011;460;48.734;9.152;2023-08-24T14:58:43;5.80;;;5.30;;
946;SDS011;460;48.734;9.152;2023-08-24T15:01:11;9.60;;;6.47;;
946;SDS011;460;48.734;9.152;2023-08-24T15:03:38;8.90;;;7.03;;
946;SDS011;460;48.734;9.152;2023-08-24T15:06:05;6.10;;;5.60;;
946;SDS011;460;48.734;9.152;2023-08-24T15:08:33;7.43;;;6.63;;
946;SDS011;460;48.734;9.152;2023-08-24T15:11:01;7.37;;;6.77;;
946;SDS011;460;48.734;9.152;2023-08-24T15:13:28;8.40;;;6.97;;
946;SDS011;460;48.734;9.152;2023-08-24T15:15:57;6.83;;;6.03;;
946;SDS011;460;48.734;9.152;2023-08-24T15:18:26;5.67;;;5.13;;
946;SDS011;460;48.734;9.152;2023-08-24T15:20:53;3.70;;;3.40;;
946;SDS011;460;48.734;9.152;2023-08-24T15:23:20;8.93;;;4.10;;
946;SDS011;460;48.734;9.152;2023-08-24T15:25:48;3.80;;;3.50;;
946;SDS011;460;48.734;9.152;2023-08-24T15:28:14;2.97;;;2.70;;
946;SDS011;460;48.734;9.152;2023-08-24T15:30:41;3.23;;;2.70;;
946;SDS011;460;48.734;9.152;2023-08-24T15:33:08;2.93;;;2.73;;
946;SDS011;460;48.734;9.152;2023-08-24T15:35:38;6.60;;;2.80;;
946;SDS011;460;48.734;9.152;2023-08-24T15:38:06;3.83;;;3.27;;
946;SDS011;460;48.734;9.152;2023-08-24T15:40:33;4.60;;;3.23;;
946;SDS011;460;48.734;9.152;2023-08-24T15:43:01;3.70;;;3.40;;
946;SDS011;460;48.734;9.152;2023-08-24T15:45:27;3.20;;;2.90;;
946;SDS011;460;48.734;9.152;2023-08-24T15:47:55;3.90;;;3.50;;
946;SDS011;460;48.734;9.152;2023-08-24T15:50:21;3.37;;;3.07;;
946;SDS011;460;48.734;9.152;2023-08-24T15:52:49;5.07;;;3.30;;